createdAt,value
2022-10-14T11:01:56.590Z,137.25
2022-10-14T11:03:39.864Z,139.25
2022-10-14T11:05:39.459Z,158.00
2022-10-14T11:07:56.414Z,162.00
2022-10-14T11:09:58.064Z,173.00
2022-10-14T11:11:50.857Z,180.75
2022-10-14T11:13:34.623Z,181.50
2022-10-14T11:15:20.494Z,192.75
2022-10-14T11:16:52.132Z,168.25
2022-10-14T11:18:46.342Z,202.25
2022-10-14T11:20:44.369Z,217.75
2022-10-14T11:22:20.335Z,191.50
2022-10-14T11:24:02.037Z,208.00
2022-10-14T11:25:51.169Z,193.75
2022-10-14T11:27:32.230Z,211.00
2022-10-14T11:29:37.825Z,203.25
2022-10-14T11:31:28.667Z,207.00
2022-10-14T11:33:05.932Z,190.00
2022-10-14T11:34:48.794Z,211.67
2022-10-14T11:36:35.267Z,209.33
2022-10-14T11:38:09.752Z,202.00
2022-10-14T11:39:44.189Z,215.67
2022-10-14T11:42:01.568Z,240.67
2022-10-14T11:43:46.230Z,231.33
2022-10-14T11:45:36.673Z,216.67
2022-10-14T11:47:19.832Z,216.33
2022-10-14T11:48:53.046Z,229.67
2022-10-14T11:50:31.009Z,213.50
2022-10-14T11:52:12.068Z,165.75
2022-10-14T11:53:53.550Z,227.00
2022-10-14T11:55:29.075Z,206.00
2022-10-14T11:57:20.260Z,227.00
2022-10-14T11:58:52.253Z,211.33
2022-10-14T12:00:24.461Z,208.25
2022-10-14T12:02:26.613Z,204.00
2022-10-14T12:04:05.069Z,216.50
2022-10-14T12:05:47.234Z,199.25
2022-10-14T12:07:22.697Z,210.00
2022-10-14T12:08:57.891Z,196.50
2022-10-14T12:10:33.333Z,206.00
2022-10-14T12:12:07.448Z,198.00
2022-10-14T12:13:45.115Z,184.00
2022-10-14T12:15:19.313Z,206.00
2022-10-14T12:16:51.014Z,187.50
2022-10-14T12:18:23.401Z,186.50
2022-10-14T12:19:55.441Z,186.50
2022-10-14T12:21:29.822Z,204.50
2022-10-14T12:23:01.518Z,189.50
2022-10-14T12:24:37.135Z,173.75
2022-10-14T12:26:20.923Z,187.50
2022-10-14T12:27:52.634Z,193.25
2022-10-14T12:29:38.086Z,193.25
2022-10-14T12:31:28.056Z,198.25
2022-10-14T12:33:08.018Z,193.50
2022-10-14T12:34:41.928Z,204.50
2022-10-14T12:36:32.197Z,158.00
2022-10-14T12:38:03.957Z,191.75
2022-10-14T12:39:36.771Z,190.75
2022-10-14T12:41:34.227Z,198.25
2022-10-14T12:43:15.750Z,199.50
2022-10-14T12:44:52.643Z,197.50
2022-10-14T12:46:24.292Z,210.75
2022-10-14T12:48:01.572Z,204.00
2022-10-14T12:49:34.277Z,218.75
2022-10-14T12:51:08.745Z,197.75
2022-10-14T12:52:40.939Z,198.75
2022-10-14T12:54:14.544Z,211.00
2022-10-14T12:55:56.556Z,207.00
2022-10-14T12:57:29.260Z,208.50
2022-10-14T12:59:02.215Z,216.00
2022-10-14T13:00:40.641Z,212.00
2022-10-14T13:02:22.000Z,199.33
2022-10-14T13:03:54.738Z,209.00
2022-10-14T13:05:38.024Z,202.50
2022-10-14T13:07:45.782Z,197.75
2022-10-14T13:09:18.469Z,194.00
2022-10-14T13:11:09.640Z,302.25
2022-10-14T13:12:41.831Z,307.00
2022-10-14T13:14:32.974Z,288.00
2022-10-14T13:16:05.707Z,228.67
2022-10-14T13:17:46.637Z,189.50
2022-10-14T13:19:47.474Z,219.50
2022-10-14T13:21:34.494Z,201.50
2022-10-14T13:23:28.590Z,188.00
2022-10-14T13:25:12.649Z,205.75
2022-10-14T13:26:54.895Z,215.25
2022-10-14T13:28:28.851Z,203.50
2022-10-14T13:30:16.113Z,220.50
2022-10-14T13:31:57.079Z,205.25
2022-10-14T13:33:52.765Z,194.50
2022-10-14T13:35:48.327Z,212.75
2022-10-14T13:37:19.879Z,192.75
2022-10-14T13:38:56.127Z,202.25
2022-10-14T13:40:38.911Z,205.25
2022-10-14T13:42:20.998Z,208.75
2022-10-14T13:43:54.794Z,203.25
2022-10-14T13:45:44.045Z,203.75
2022-10-14T13:47:16.186Z,205.00
2022-10-14T13:48:51.892Z,184.00
2022-10-14T13:50:25.409Z,192.75
2022-10-14T13:52:00.381Z,193.00
2022-10-14T13:53:32.722Z,217.00
2022-10-14T13:55:18.269Z,202.00
2022-10-14T13:58:51.825Z,211.25
2022-10-14T14:00:45.359Z,210.00
2022-10-14T14:02:23.989Z,213.25
2022-10-14T14:03:56.701Z,198.50
2022-10-14T14:07:18.691Z,208.00
2022-10-14T14:08:57.072Z,206.00
2022-10-14T14:10:28.763Z,261.33
2022-10-14T14:12:03.104Z,226.00
2022-10-14T14:13:54.534Z,207.75
2022-10-14T14:15:27.864Z,227.67
2022-10-14T14:16:59.934Z,216.33
2022-10-14T14:18:56.393Z,190.25
2022-10-14T14:20:34.068Z,199.00
2022-10-14T14:22:08.672Z,195.25
2022-10-14T14:23:53.756Z,160.00
2022-10-14T14:25:40.470Z,168.75
2022-10-14T14:27:23.691Z,177.50
2022-10-14T14:28:55.795Z,190.00
2022-10-14T14:30:36.609Z,178.50
2022-10-14T14:32:16.699Z,165.25
2022-10-14T14:33:48.921Z,176.75
2022-10-14T14:35:23.481Z,179.50
2022-10-14T14:37:01.358Z,157.25
2022-10-14T14:38:38.593Z,169.00
2022-10-14T14:40:29.272Z,201.50
2022-10-14T14:42:02.028Z,241.33
2022-10-14T14:43:39.671Z,233.67
2022-10-14T14:45:19.713Z,207.25
2022-10-14T14:46:53.166Z,201.75
2022-10-14T14:48:24.881Z,187.75
2022-10-14T14:50:11.759Z,144.50
2022-10-14T14:51:48.986Z,159.50
2022-10-14T14:53:29.724Z,139.25
2022-10-14T14:55:01.478Z,123.60
2022-10-14T14:56:44.354Z,139.25
2022-10-14T14:58:27.649Z,121.40
2022-10-14T15:00:01.410Z,134.40
2022-10-14T15:01:33.053Z,118.60
2022-10-14T15:03:05.095Z,115.00
2022-10-14T15:04:36.723Z,113.00
2022-10-14T15:06:14.297Z,85.75
2022-10-14T15:07:46.067Z,84.75
2022-10-14T15:09:20.546Z,81.25
2022-10-14T15:10:53.787Z,83.25
2022-10-14T15:12:42.577Z,107.00
2022-10-14T15:14:33.677Z,80.75
2022-10-14T15:16:07.088Z,79.00
2022-10-14T15:17:46.040Z,80.25
2022-10-14T15:19:20.573Z,74.50
2022-10-14T15:20:52.307Z,78.00
2022-10-14T15:22:35.231Z,76.50
2022-10-14T15:24:15.545Z,72.75
2022-10-14T15:25:57.177Z,72.25
2022-10-14T15:27:40.823Z,71.80
2022-10-14T15:29:16.184Z,72.40
2022-10-14T15:30:52.584Z,71.80
2022-10-14T15:32:24.630Z,72.00
2022-10-14T15:33:56.413Z,69.20
2022-10-14T15:35:28.348Z,68.60
2022-10-14T15:37:00.105Z,68.80
2022-10-14T15:40:12.620Z,71.20
2022-10-14T15:41:44.938Z,66.20
2022-10-14T15:43:21.438Z,67.20
2022-10-14T15:44:53.578Z,61.60
2022-10-14T15:46:44.413Z,59.40
2022-10-14T15:48:19.667Z,64.20
2022-10-14T15:49:51.363Z,60.20
2022-10-14T15:51:26.322Z,61.40
2022-10-14T15:52:58.072Z,57.40
2022-10-14T15:54:30.133Z,59.40
2022-10-14T15:56:03.059Z,53.80
2022-10-14T15:57:34.703Z,50.00
2022-10-14T15:59:06.411Z,52.80
2022-10-14T16:00:38.108Z,57.80
2022-10-14T16:02:23.693Z,51.00
2022-10-14T16:03:55.485Z,56.00
2022-10-14T16:05:29.041Z,53.60
2022-10-14T16:07:00.736Z,54.20
2022-10-14T16:08:32.632Z,52.40
2022-10-14T16:10:04.887Z,52.00
2022-10-14T16:11:36.604Z,49.20
2022-10-14T16:13:11.564Z,50.00
2022-10-14T16:14:43.235Z,32.40
2022-10-14T16:16:15.413Z,46.80
2022-10-14T16:17:48.921Z,52.80
2022-10-14T16:19:24.044Z,47.20
2022-10-14T16:20:55.723Z,42.20
2022-10-14T16:22:27.507Z,49.60
2022-10-14T16:23:59.478Z,50.60
2022-10-14T16:25:43.935Z,47.20
2022-10-14T16:27:16.771Z,43.80
2022-10-14T16:28:48.564Z,42.20
2022-10-14T16:30:21.961Z,43.60
2022-10-14T16:31:54.385Z,48.00
2022-10-14T16:33:26.265Z,41.80
2022-10-14T16:34:57.936Z,39.80
2022-10-14T16:36:29.752Z,45.60
2022-10-14T16:38:02.781Z,38.00
2022-10-14T16:39:34.454Z,42.60
2022-10-14T16:41:09.754Z,46.40
2022-10-14T16:42:41.390Z,34.20
2022-10-14T16:44:24.762Z,41.60
2022-10-14T16:46:00.347Z,37.20
2022-10-14T16:47:32.134Z,38.60
2022-10-14T16:49:03.931Z,33.00
2022-10-14T16:50:35.625Z,37.00
2022-10-14T16:52:08.006Z,33.00
2022-10-14T16:53:45.155Z,35.00
2022-10-14T16:55:18.125Z,28.00
2022-10-14T16:56:53.998Z,41.60
2022-10-14T16:58:25.698Z,39.80
2022-10-14T16:59:57.347Z,33.60
2022-10-14T17:01:29.251Z,42.00
2022-10-14T17:03:02.172Z,40.40
2022-10-14T17:04:34.015Z,37.40
2022-10-14T17:06:06.091Z,34.80
2022-10-14T17:07:37.898Z,44.60
2022-10-14T17:09:09.723Z,29.00
2022-10-14T17:10:41.422Z,45.20
2022-10-14T17:12:14.248Z,38.80
2022-10-14T17:13:46.275Z,49.60
2022-10-14T17:15:18.105Z,45.00
2022-10-14T17:16:52.425Z,35.80
2022-10-14T17:18:25.757Z,34.20
2022-10-14T17:19:57.733Z,41.00
2022-10-14T17:21:29.805Z,46.60
2022-10-14T17:23:07.884Z,38.80
2022-10-14T17:24:42.121Z,32.00
2022-10-14T17:26:18.563Z,42.40
2022-10-14T17:27:50.372Z,41.80
2022-10-14T17:29:22.906Z,41.40
2022-10-14T17:30:54.887Z,42.20
2022-10-14T17:32:28.250Z,43.60
2022-10-14T17:34:00.169Z,40.80
2022-10-14T17:35:33.672Z,42.60
2022-10-14T17:37:05.564Z,37.40
2022-10-14T17:38:37.340Z,36.40
2022-10-14T17:40:09.575Z,46.00
2022-10-14T17:41:44.057Z,36.00
2022-10-14T17:43:15.739Z,39.20
2022-10-14T17:44:47.508Z,38.40
2022-10-14T17:46:21.243Z,42.40
2022-10-14T17:47:55.844Z,32.00
2022-10-14T17:49:27.885Z,41.00
2022-10-14T17:50:59.937Z,35.40
2022-10-14T17:52:31.697Z,41.20
2022-10-14T17:54:05.570Z,39.00
2022-10-14T17:55:37.325Z,37.80
2022-10-14T17:57:09.289Z,38.80
2022-10-14T17:58:41.052Z,41.80
2022-10-14T18:00:13.370Z,45.20
2022-10-14T18:02:03.124Z,38.00
2022-10-14T18:03:35.973Z,43.00
2022-10-14T18:05:08.024Z,47.00
2022-10-14T18:06:39.784Z,42.40
2022-10-14T18:08:12.244Z,41.60
2022-10-14T18:09:43.988Z,40.20
2022-10-14T18:11:15.717Z,39.00
2022-10-14T18:12:47.486Z,44.00
2022-10-14T18:14:19.326Z,37.80
2022-10-14T18:15:51.154Z,41.80
2022-10-14T18:17:23.166Z,43.00
2022-10-14T18:18:55.078Z,47.00
2022-10-14T18:20:27.384Z,39.00
2022-10-14T18:21:59.273Z,43.40
2022-10-14T18:23:35.735Z,39.00
2022-10-14T18:25:07.745Z,46.80
2022-10-14T18:26:40.669Z,44.40
2022-10-14T18:28:12.992Z,40.60
2022-10-14T18:29:44.836Z,46.40
2022-10-14T18:31:17.975Z,40.80
2022-10-14T18:32:49.707Z,54.00
2022-10-14T18:34:22.526Z,48.80
2022-10-14T18:35:57.452Z,49.60
2022-10-14T18:37:29.246Z,47.60
2022-10-14T18:39:02.608Z,46.60
2022-10-14T18:40:34.469Z,52.60
2022-10-14T18:42:06.155Z,53.00
2022-10-14T18:43:37.969Z,50.20
2022-10-14T18:45:10.157Z,51.60
2022-10-14T18:46:41.961Z,53.20
2022-10-14T18:48:13.736Z,52.00
2022-10-14T18:49:46.216Z,51.20
2022-10-14T18:51:25.621Z,52.80
2022-10-14T18:52:58.300Z,54.40
2022-10-14T18:54:31.189Z,52.60
2022-10-14T18:56:17.283Z,42.60
2022-10-14T18:57:49.038Z,49.60
2022-10-14T18:59:23.043Z,44.00
2022-10-14T19:00:55.158Z,50.40
2022-10-14T19:02:27.376Z,54.40
2022-10-14T19:03:59.434Z,50.40
2022-10-14T19:05:36.009Z,66.40
2022-10-14T19:07:08.681Z,71.50
2022-10-14T19:08:42.274Z,71.25
2022-10-14T19:10:14.148Z,75.00
2022-10-14T19:11:47.937Z,73.50
2022-10-14T19:13:19.653Z,73.25
2022-10-14T19:14:51.552Z,72.00
2022-10-14T19:16:25.358Z,79.50
2022-10-14T19:17:58.925Z,76.00
2022-10-14T19:19:30.624Z,79.75
2022-10-14T19:21:08.368Z,79.75
2022-10-14T19:22:44.923Z,89.25
2022-10-14T19:24:16.949Z,85.75
2022-10-14T19:25:49.668Z,86.25
2022-10-14T19:27:21.606Z,84.25
2022-10-14T19:28:53.856Z,98.25
2022-10-14T19:30:26.305Z,88.25
2022-10-14T19:31:59.218Z,98.50
2022-10-14T19:33:31.629Z,113.00
2022-10-14T19:35:03.540Z,109.00
2022-10-14T19:36:37.442Z,110.60
2022-10-14T19:38:09.412Z,92.25
2022-10-14T19:39:41.245Z,108.00
2022-10-14T19:41:13.602Z,109.00
2022-10-14T19:42:46.115Z,113.20
2022-10-14T19:44:19.220Z,102.00
2022-10-14T19:45:51.179Z,110.75
2022-10-14T19:47:25.017Z,110.00
2022-10-14T19:49:04.629Z,130.20
2022-10-14T19:50:36.418Z,118.60
2022-10-14T19:52:08.178Z,120.20
2022-10-14T19:53:40.175Z,132.25
2022-10-14T19:55:12.052Z,128.00
2022-10-14T19:56:43.885Z,132.00
2022-10-14T19:58:15.644Z,149.50
2022-10-14T19:59:47.509Z,132.50
2022-10-14T20:01:20.281Z,132.00
2022-10-14T20:02:52.151Z,140.75
2022-10-14T20:04:26.623Z,139.75
2022-10-14T20:06:00.131Z,146.25
2022-10-14T20:07:31.970Z,151.75
2022-10-14T20:09:04.749Z,143.00
2022-10-14T20:10:36.765Z,162.25
2022-10-14T20:12:08.541Z,156.50
2022-10-14T20:13:40.408Z,166.50
2022-10-14T20:15:12.290Z,150.25
2022-10-14T20:16:44.041Z,167.00
2022-10-14T20:18:18.081Z,157.75
2022-10-14T20:19:49.958Z,158.00
2022-10-14T20:21:21.747Z,175.00
2022-10-14T20:22:53.638Z,163.00
2022-10-14T20:24:25.523Z,150.75
2022-10-14T20:26:01.310Z,163.75
2022-10-14T20:27:33.034Z,160.00
2022-10-14T20:29:04.888Z,171.00
2022-10-14T20:30:41.665Z,171.25
2022-10-14T20:32:13.386Z,178.25
2022-10-14T20:33:45.249Z,161.75
2022-10-14T20:35:17.032Z,175.25
2022-10-14T20:36:48.812Z,175.00
2022-10-14T20:38:20.579Z,175.75
2022-10-14T20:39:53.902Z,160.00
2022-10-14T20:41:26.260Z,158.75
2022-10-14T20:42:58.071Z,171.50
2022-10-14T20:44:30.041Z,155.25
2022-10-14T20:46:01.875Z,159.00
2022-10-14T20:47:33.705Z,173.75
2022-10-14T20:49:05.389Z,163.25
2022-10-14T20:50:37.231Z,155.00
2022-10-14T20:52:09.969Z,164.00
2022-10-14T20:55:18.494Z,162.50
2022-10-14T20:56:50.256Z,165.00
2022-10-14T20:58:23.166Z,173.50
2022-10-14T20:59:54.973Z,165.75
2022-10-14T21:01:27.263Z,173.50
2022-10-14T21:02:59.133Z,184.75
2022-10-14T21:04:30.964Z,176.75
2022-10-14T21:06:04.413Z,176.25
2022-10-14T21:07:36.172Z,143.25
2022-10-14T21:09:08.042Z,168.50
2022-10-14T21:10:39.801Z,169.75
2022-10-14T21:12:11.530Z,170.50
2022-10-14T21:13:44.915Z,170.00
2022-10-14T21:15:16.933Z,187.25
2022-10-14T21:16:48.704Z,174.75
2022-10-14T21:18:20.507Z,165.50
2022-10-14T21:19:52.567Z,158.50
2022-10-14T21:21:25.401Z,160.75
2022-10-14T21:22:57.050Z,211.50
2022-10-14T21:24:28.749Z,181.75
2022-10-14T21:26:00.459Z,168.00
2022-10-14T21:27:32.095Z,164.25
2022-10-14T21:29:04.040Z,255.33
2022-10-14T21:30:35.742Z,208.67
2022-10-14T21:32:07.489Z,220.67
2022-10-14T21:33:39.278Z,198.25
2022-10-14T21:35:10.971Z,194.00
2022-10-14T21:36:42.809Z,190.50
2022-10-14T21:38:14.569Z,179.75
2022-10-14T21:39:46.361Z,181.75
2022-10-14T21:41:18.097Z,170.75
2022-10-14T21:42:49.795Z,162.25
2022-10-14T21:44:21.588Z,177.25
2022-10-14T21:45:53.629Z,177.50
2022-10-14T21:47:25.384Z,183.75
2022-10-14T21:48:57.454Z,169.75
2022-10-14T21:50:29.256Z,157.75
2022-10-14T21:52:00.942Z,171.75
2022-10-14T21:53:32.933Z,178.75
2022-10-14T21:55:04.980Z,159.75
2022-10-14T21:56:36.844Z,180.00
2022-10-14T21:58:08.570Z,172.75
2022-10-14T21:59:40.432Z,165.00
2022-10-14T22:01:17.236Z,171.50
2022-10-14T22:02:52.745Z,166.75
2022-10-14T22:04:25.829Z,151.50
2022-10-14T22:06:01.190Z,166.75
2022-10-14T22:07:32.943Z,161.75
2022-10-14T22:09:06.022Z,158.25
2022-10-14T22:10:40.920Z,188.00
2022-10-14T22:12:14.810Z,164.50
2022-10-14T22:13:49.350Z,163.50
2022-10-14T22:15:21.048Z,157.25
2022-10-14T22:16:52.864Z,148.00
2022-10-14T22:18:24.644Z,178.25
2022-10-14T22:19:58.127Z,156.50
2022-10-14T22:21:30.914Z,186.50
2022-10-14T22:23:03.130Z,159.00
2022-10-14T22:24:34.830Z,151.25
2022-10-14T22:26:08.509Z,143.50
2022-10-14T22:27:40.225Z,146.25
2022-10-14T22:29:13.929Z,135.75
2022-10-14T22:30:45.736Z,142.75
2022-10-14T22:32:17.672Z,145.25
2022-10-14T22:33:49.745Z,145.25
